Cushman, Arkansas
Current Conditions -  °F | °C
As of 6:55 AM on Friday 19 Dec 2014 (Local Time) from KBVX Reporting Station
Overcast Overcast  
Wind Chill: 37°   Ceiling: 1100
Heat Index: 37°   Visibility: 5mi
Dew Point: 34°   Wind: 3mph
Humidity: 87%   Direction: 50°NE
Pressure: 30.26"   Gusts: NA
Location:  35.87°N, 91.75°W
Report Text: KBVX 191255Z AUTO 05003KT 5SM BKN011 BKN022 OVC031 03/01 A3026 RMK AO1
Loading
Personal Weather Stations






























Interactive Weather Map New forecast layout! Learn more

10-Day Weather Forecast

Advertisements
Track Severe Weather on mobile